»·PEaware :: N623JB KSMX-KBFL

N623JB :: KSMX-KBFL

FLIGHT INFORMATION

Flight Status: Arrived
Operator: Privately registered:
United States
More flights under this callsign
Pilot: Jonathan B. (32222)
Aircraft: CIRRUS SR-22
(SR22)
More flights by this aircraft type
Origin: KSMX Santa Maria Pub/Capt Hancock
United States
Destination: KBFL Meadows
United States
More flights between these airports :: More routes between these airports
Route: +
File this flight plan on PilotEdge
Remarks:
Altitude:
(Current/Filed)
7,000ft
Speed:
(Current/Filed)
140kts
Departed: 06-Nov-20 08:04 AM
Arrived: 06-Nov-20 08:40 AM
Distance/Time
Traveled:
76nm/0:36
Distance/Time
To Go:
Arrived

Flight Plot

Page will automatically refresh every two minutes.


Map Options




Map Legend


Flown Route
Filed Route
Departure Airport
Arrival Airport
Navaid (VOR, NDB)
Fix

Horizontal Profiles

Position Reports

Time Latitude Longitude Heading Altitude Ground
Speed
06-Nov-20 07:42 34.897473 -120.447149 46 253ft 0kts
06-Nov-20 07:44 34.897473 -120.447149 46 253ft 0kts
06-Nov-20 07:45 34.897473 -120.447149 46 253ft 0kts
06-Nov-20 07:46 34.897473 -120.447149 46 253ft 0kts
06-Nov-20 07:47 34.897473 -120.447149 46 253ft 0kts
06-Nov-20 07:48 34.897473 -120.447149 46 253ft 0kts
06-Nov-20 07:49 34.897473 -120.447149 46 253ft 0kts
06-Nov-20 07:50 34.897473 -120.447149 46 253ft 0kts
06-Nov-20 07:51 34.897473 -120.447149 46 253ft 0kts
06-Nov-20 07:52 34.897473 -120.447149 46 253ft 0kts
06-Nov-20 07:53 34.897473 -120.447149 46 253ft 0kts
06-Nov-20 07:54 34.897473 -120.447149 46 253ft 0kts
06-Nov-20 07:55 34.897473 -120.447149 46 253ft 0kts
06-Nov-20 07:56 34.897473 -120.447150 46 253ft 0kts
06-Nov-20 07:57 34.897361 -120.447295 46 253ft 0kts
06-Nov-20 07:58 34.897352 -120.447151 156 253ft 0kts
06-Nov-20 07:59 34.897352 -120.447151 156 253ft 0kts
06-Nov-20 08:00 34.896363 -120.447625 135 255ft 10kts
06-Nov-20 08:01 34.893631 -120.445275 180 263ft 12kts
06-Nov-20 08:02 34.893000 -120.446075 297 264ft 21kts
06-Nov-20 08:03 34.910224 -120.466297 315 1007ft 118kts
06-Nov-20 08:04 34.931783 -120.455545 76 2534ft 115kts
06-Nov-20 08:05 34.932906 -120.417772 119 3923ft 114kts
06-Nov-20 08:06 34.924464 -120.381746 67 5210ft 118kts
06-Nov-20 08:07 34.937285 -120.344624 69 6421ft 120kts
06-Nov-20 08:08 34.951252 -120.301827 68 6971ft 159kts
06-Nov-20 08:09 34.967152 -120.253451 69 7127ft 145kts
06-Nov-20 08:10 34.981666 -120.208965 68 7473ft 143kts
06-Nov-20 08:11 34.996860 -120.162387 69 7546ft 149kts
06-Nov-20 08:12 35.012214 -120.115233 69 7744ft 152kts
06-Nov-20 08:13 35.028170 -120.066112 69 7716ft 156kts
06-Nov-20 08:14 35.043455 -120.019087 69 7710ft 141kts
06-Nov-20 08:15 35.058010 -119.974101 69 7825ft 147kts
06-Nov-20 08:16 35.073357 -119.926658 69 7932ft 152kts
06-Nov-20 08:17 35.089019 -119.878179 69 7924ft 159kts
06-Nov-20 08:18 35.109383 -119.828322 64 7636ft 159kts
06-Nov-20 08:19 35.128946 -119.781525 63 7700ft 154kts
06-Nov-20 08:20 35.148699 -119.734884 63 7701ft 154kts
06-Nov-20 08:21 35.168537 -119.688110 62 7701ft 155kts
06-Nov-20 08:22 35.188363 -119.641309 63 7697ft 155kts
06-Nov-20 08:23 35.208143 -119.594601 63 7700ft 154kts
06-Nov-20 08:24 35.227791 -119.548015 63 6826ft 155kts
06-Nov-20 08:25 35.247376 -119.501698 63 5294ft 150kts
06-Nov-20 08:26 35.266331 -119.456741 63 3960ft 143kts
06-Nov-20 08:27 35.285096 -119.416428 44 3718ft 137kts
06-Nov-20 08:28 35.315010 -119.387290 37 3701ft 137kts
06-Nov-20 08:29 35.344744 -119.357802 39 3700ft 137kts
06-Nov-20 08:30 35.373319 -119.326722 55 3700ft 137kts
06-Nov-20 08:31 35.390703 -119.285026 64 3700ft 137kts
06-Nov-20 08:32 35.407948 -119.243223 62 3699ft 137kts
06-Nov-20 08:33 35.425764 -119.201719 62 3700ft 137kts
06-Nov-20 08:34 35.437861 -119.160769 93 2886ft 140kts
06-Nov-20 08:35 35.436228 -119.114471 88 1666ft 129kts
06-Nov-20 08:36 35.426984 -119.079844 117 1583ft 109kts
06-Nov-20 08:37 35.409394 -119.050656 124 1632ft 99kts
06-Nov-20 08:38 35.422853 -119.043040 313 844ft 75kts
06-Nov-20 08:39 35.435083 -119.057708 315 495ft 32kts
06-Nov-20 08:40 35.436306 -119.057688 71 494ft 0kts
06-Nov-20 08:41 35.435484 -119.055949 130 492ft 19kts
06-Nov-20 08:42 35.435603 -119.053242 179 490ft 1kts
06-Nov-20 08:43 35.435603 -119.053242 179 490ft 0kts
06-Nov-20 08:44 35.435603 -119.053242 179 490ft 0kts

Navigation Log

Ident Type
Flight plan parsing failed, navigation log unavailable